createdAt,value
2023-01-05T00:00:39.744Z,32.7
2023-01-05T00:02:44.350Z,32.77
2023-01-05T00:04:48.760Z,32.86
2023-01-05T00:06:53.086Z,32.88
2023-01-05T00:08:57.445Z,32.94
2023-01-05T00:11:01.889Z,32.83
2023-01-05T00:13:06.318Z,32.77
2023-01-05T00:15:10.653Z,32.89
2023-01-05T00:17:14.998Z,32.85
2023-01-05T00:19:19.473Z,32.75
2023-01-05T00:21:23.808Z,32.85
2023-01-05T00:23:28.172Z,32.83
2023-01-05T00:25:32.630Z,32.72
2023-01-05T00:27:36.974Z,32.78
2023-01-05T00:29:41.331Z,32.8
2023-01-05T00:31:45.901Z,32.71
2023-01-05T00:33:50.414Z,32.66
2023-01-05T00:35:54.744Z,32.86
2023-01-05T00:37:59.092Z,32.92
2023-01-05T00:40:03.474Z,33.02
2023-01-05T00:42:07.837Z,32.87
2023-01-05T00:44:12.236Z,32.95
2023-01-05T00:46:16.847Z,32.89
2023-01-05T00:48:21.317Z,33.01
2023-01-05T00:50:25.857Z,32.83
2023-01-05T00:52:30.291Z,32.84
2023-01-05T00:54:34.644Z,32.84
2023-01-05T00:56:39.009Z,32.95
2023-01-05T00:58:43.412Z,32.91
2023-01-05T01:00:50.043Z,32.97
2023-01-05T01:02:54.623Z,32.98
2023-01-05T01:04:58.984Z,32.98
2023-01-05T01:07:03.390Z,32.98
2023-01-05T01:09:07.841Z,33.05
2023-01-05T01:11:12.200Z,33.04
2023-01-05T01:13:16.547Z,33.05
2023-01-05T01:15:20.904Z,32.93
2023-01-05T01:17:25.268Z,32.93
2023-01-05T01:19:29.570Z,32.87
2023-01-05T01:21:33.893Z,32.94
2023-01-05T01:23:38.241Z,32.85
2023-01-05T01:25:42.539Z,32.93
2023-01-05T01:27:46.884Z,32.91
2023-01-05T01:29:51.396Z,33
2023-01-05T01:31:55.916Z,33.03
2023-01-05T01:34:00.279Z,32.91
2023-01-05T01:36:04.593Z,32.99
2023-01-05T01:38:08.940Z,32.91
2023-01-05T01:40:13.278Z,32.88
2023-01-05T01:42:17.656Z,32.96
2023-01-05T01:44:22.001Z,32.86
2023-01-05T01:46:26.563Z,32.81
2023-01-05T01:48:30.990Z,32.67
2023-01-05T01:50:35.409Z,32.77
2023-01-05T01:52:39.779Z,32.93
2023-01-05T01:54:44.143Z,32.83
2023-01-05T01:56:48.472Z,32.85
2023-01-05T01:58:52.857Z,32.93
2023-01-05T02:00:57.385Z,33.02
2023-01-05T02:03:01.826Z,32.92
2023-01-05T02:05:06.176Z,33.02
2023-01-05T02:07:10.586Z,33.08
2023-01-05T02:09:15.056Z,33.13
2023-01-05T02:11:19.490Z,33.12
2023-01-05T02:13:32.669Z,33.24
2023-01-05T02:15:36.998Z,33.32
2023-01-05T02:17:41.308Z,33.38
2023-01-05T02:19:45.660Z,33.5
2023-01-05T02:21:49.991Z,33.56
2023-01-05T02:23:54.320Z,33.65
2023-01-05T02:25:58.665Z,33.69
2023-01-05T02:28:02.981Z,33.82
2023-01-05T02:30:07.307Z,33.77
2023-01-05T02:32:11.621Z,33.65
2023-01-05T02:34:16.043Z,33.75
2023-01-05T02:36:29.811Z,33.65
2023-01-05T02:38:34.435Z,33.59
2023-01-05T02:40:39.024Z,33.53
2023-01-05T02:42:43.366Z,33.52
2023-01-05T02:44:47.699Z,33.5
2023-01-05T02:46:52.055Z,33.57
2023-01-05T02:48:56.402Z,33.52
2023-01-05T02:51:00.780Z,33.43
2023-01-05T02:53:05.101Z,33.46
2023-01-05T02:55:09.443Z,33.46
2023-01-05T02:57:13.913Z,33.49
2023-01-05T02:59:18.242Z,33.58
2023-01-05T03:01:23.151Z,33.5
2023-01-05T03:03:27.734Z,33.56
2023-01-05T03:05:32.088Z,33.65
2023-01-05T03:07:36.442Z,33.69
2023-01-05T03:09:47.341Z,33.8
2023-01-05T03:11:51.699Z,33.73
2023-01-05T03:13:56.096Z,33.71
2023-01-05T03:16:00.679Z,33.79
2023-01-05T03:18:05.062Z,33.8
2023-01-05T03:20:09.495Z,33.96
2023-01-05T03:22:13.892Z,34
2023-01-05T03:24:18.236Z,34.02
2023-01-05T03:26:22.540Z,34.11
2023-01-05T03:28:26.861Z,34.13
2023-01-05T03:30:31.401Z,34.17
2023-01-05T03:32:37.199Z,34.18
2023-01-05T03:34:41.649Z,34.32
2023-01-05T03:36:45.952Z,34.34
2023-01-05T03:38:50.332Z,34.32
2023-01-05T03:40:54.692Z,34.27
2023-01-05T03:42:59.057Z,34.4
2023-01-05T03:45:03.522Z,34.3
2023-01-05T03:47:07.835Z,34.34
2023-01-05T03:49:12.204Z,34.29
2023-01-05T03:51:16.591Z,34.24
2023-01-05T03:53:21.036Z,34.28
2023-01-05T03:55:25.399Z,34.29
2023-01-05T03:57:29.764Z,34.33
2023-01-05T03:59:34.196Z,34.39
2023-01-05T04:01:38.943Z,34.36
2023-01-05T04:03:43.512Z,34.43
2023-01-05T04:05:47.888Z,34.55
2023-01-05T04:07:52.264Z,34.58
2023-01-05T04:09:56.720Z,34.61
2023-01-05T04:12:01.093Z,34.71
2023-01-05T04:14:05.419Z,34.69
2023-01-05T04:16:10.053Z,34.71
2023-01-05T04:18:14.511Z,34.66
2023-01-05T04:20:18.855Z,34.78
2023-01-05T04:22:29.186Z,34.93
2023-01-05T04:24:33.520Z,34.93
2023-01-05T04:26:37.894Z,35.05
2023-01-05T04:28:42.224Z,35
2023-01-05T04:30:46.634Z,35.04
2023-01-05T04:32:51.031Z,35.17
2023-01-05T04:34:55.351Z,35.3
2023-01-05T04:36:59.765Z,35.3
2023-01-05T04:39:04.116Z,35.39
2023-01-05T04:41:08.525Z,35.48
2023-01-05T04:43:12.864Z,35.5
2023-01-05T04:45:17.179Z,35.49
2023-01-05T04:47:21.552Z,35.53
2023-01-05T04:49:25.905Z,35.61
2023-01-05T04:51:30.261Z,35.56
2023-01-05T04:53:34.642Z,35.58
2023-01-05T04:55:39.036Z,35.4
2023-01-05T04:57:43.324Z,35.4
2023-01-05T04:59:47.649Z,35.3
2023-01-05T05:01:52.444Z,35.21
2023-01-05T05:03:57.076Z,35.17
2023-01-05T05:06:01.614Z,35.12
2023-01-05T05:08:06.286Z,35.06
2023-01-05T05:10:10.726Z,34.92
2023-01-05T05:12:15.043Z,34.92
2023-01-05T05:14:19.413Z,35.02
2023-01-05T05:16:23.862Z,35
2023-01-05T05:18:28.183Z,34.89
2023-01-05T05:20:32.600Z,34.85
2023-01-05T05:22:36.949Z,34.9
2023-01-05T05:24:41.260Z,34.93
2023-01-05T05:26:45.640Z,34.87
2023-01-05T05:28:49.973Z,34.92
2023-01-05T05:30:54.489Z,34.84
2023-01-05T05:32:58.891Z,34.82
2023-01-05T05:35:03.202Z,35.28
2023-01-05T05:37:07.547Z,35.09
2023-01-05T05:39:11.881Z,34.91
2023-01-05T05:41:16.251Z,35.03
2023-01-05T05:43:20.728Z,35.1
2023-01-05T05:45:25.136Z,34.92
2023-01-05T05:47:29.547Z,35.01
2023-01-05T05:49:33.885Z,34.89
2023-01-05T05:51:38.209Z,35.43
2023-01-05T05:53:42.555Z,35.91
2023-01-05T05:55:46.861Z,36.36
2023-01-05T05:57:51.197Z,36.38
2023-01-05T05:59:55.637Z,36.76
2023-01-05T06:02:00.513Z,36.66
2023-01-05T06:04:04.956Z,36.76
2023-01-05T06:06:09.313Z,37.01
2023-01-05T06:08:13.657Z,36.97
2023-01-05T06:10:18.398Z,37
2023-01-05T06:12:22.938Z,36.94
2023-01-05T06:14:27.247Z,36.64
2023-01-05T06:16:31.829Z,36.96
2023-01-05T06:18:36.241Z,36.91
2023-01-05T06:20:40.616Z,36.95
2023-01-05T06:22:44.929Z,37.07
2023-01-05T06:24:49.273Z,37.11
2023-01-05T06:26:53.717Z,37.07
2023-01-05T06:28:58.043Z,37.11
2023-01-05T06:31:02.455Z,37.1
2023-01-05T06:33:06.749Z,37.09
2023-01-05T06:35:11.013Z,37.04
2023-01-05T06:37:15.301Z,37.02
2023-01-05T06:39:19.541Z,36.97
2023-01-05T06:41:23.862Z,36.89
2023-01-05T06:43:28.219Z,36.92
2023-01-05T06:45:32.889Z,36.98
2023-01-05T06:47:37.292Z,36.93
2023-01-05T06:49:41.618Z,37.03
2023-01-05T06:51:45.942Z,36.95
2023-01-05T06:53:50.307Z,36.95
2023-01-05T06:55:54.644Z,36.97
2023-01-05T06:58:02.947Z,37.14
2023-01-05T07:00:07.550Z,37.06
2023-01-05T07:02:12.168Z,36.98
2023-01-05T07:04:16.781Z,36.94
2023-01-05T07:06:21.106Z,36.82
2023-01-05T07:08:25.449Z,36.79
2023-01-05T07:10:29.959Z,36.8
2023-01-05T07:12:34.280Z,36.86
2023-01-05T07:14:38.629Z,36.78
2023-01-05T07:16:43.199Z,36.81
2023-01-05T07:18:47.573Z,36.88
2023-01-05T07:20:51.893Z,36.84
2023-01-05T07:22:56.255Z,36.91
2023-01-05T07:25:00.750Z,36.89
2023-01-05T07:27:11.661Z,36.83
2023-01-05T07:29:16.071Z,36.72
2023-01-05T07:31:20.648Z,36.72
2023-01-05T07:33:24.986Z,36.65
2023-01-05T07:35:29.401Z,36.61
2023-01-05T07:37:33.787Z,36.62
2023-01-05T07:39:38.141Z,36.56
2023-01-05T07:41:42.451Z,36.56
2023-01-05T07:43:46.774Z,36.55
2023-01-05T07:45:51.260Z,36.5
2023-01-05T07:47:55.609Z,36.48
2023-01-05T07:49:59.857Z,36.45
2023-01-05T07:52:04.154Z,36.41
2023-01-05T07:54:08.496Z,36.38
2023-01-05T07:56:12.906Z,36.4
2023-01-05T07:58:17.300Z,36.38
2023-01-05T08:00:21.750Z,36.39
2023-01-05T08:02:35.782Z,36.39
2023-01-05T08:04:40.703Z,36.37
2023-01-05T08:06:45.130Z,36.29
2023-01-05T08:08:49.484Z,36.36
2023-01-05T08:10:53.859Z,36.39
2023-01-05T08:12:58.204Z,36.34
2023-01-05T08:15:02.514Z,36.38
2023-01-05T08:17:06.832Z,36.35
2023-01-05T08:19:13.598Z,36.38
2023-01-05T08:21:17.975Z,36.38
2023-01-05T08:23:28.592Z,36.35
2023-01-05T08:25:33.015Z,36.34
2023-01-05T08:27:37.358Z,36.35
2023-01-05T08:29:41.645Z,36.36
2023-01-05T08:31:46.278Z,36.35
2023-01-05T08:33:50.635Z,36.33
2023-01-05T08:35:54.973Z,36.33
2023-01-05T08:37:59.399Z,36.33
2023-01-05T08:40:03.747Z,36.3
2023-01-05T08:42:08.107Z,36.3
2023-01-05T08:44:12.581Z,36.31
2023-01-05T08:46:17.228Z,36.29
2023-01-05T08:48:21.605Z,36.3
2023-01-05T08:50:26.157Z,36.29
2023-01-05T08:52:30.502Z,36.27
2023-01-05T08:54:34.830Z,36.27
2023-01-05T08:56:41.409Z,36.26
2023-01-05T08:58:45.763Z,36.26
2023-01-05T09:00:50.332Z,36.24
2023-01-05T09:02:55.084Z,36.27
2023-01-05T09:04:59.504Z,36.24
2023-01-05T09:07:03.841Z,36.24
2023-01-05T09:09:08.185Z,36.26
2023-01-05T09:11:12.567Z,36.21
2023-01-05T09:13:16.953Z,36.21
2023-01-05T09:15:21.342Z,36.22
2023-01-05T09:17:25.960Z,36.2
2023-01-05T09:19:30.310Z,36.21
2023-01-05T09:21:34.704Z,36.18
2023-01-05T09:23:39.046Z,36.21
2023-01-05T09:25:43.411Z,36.21
2023-01-05T09:27:47.725Z,36.2
2023-01-05T09:29:52.083Z,36.19
2023-01-05T09:31:56.424Z,36.19
2023-01-05T09:34:00.774Z,36.17
2023-01-05T09:36:05.114Z,36.16
2023-01-05T09:38:09.555Z,36.16
2023-01-05T09:40:13.902Z,36.16
2023-01-05T09:42:18.377Z,36.16
2023-01-05T09:44:22.711Z,36.14
2023-01-05T09:46:27.277Z,36.13
2023-01-05T09:48:31.815Z,36.14
2023-01-05T09:50:36.169Z,36.14
2023-01-05T09:52:40.910Z,36.09
2023-01-05T09:54:45.235Z,36.08
2023-01-05T09:57:19.721Z,36.06
2023-01-05T09:59:24.080Z,36.08
2023-01-05T10:01:28.536Z,36.09
2023-01-05T10:04:06.309Z,36.06
2023-01-05T10:06:10.649Z,36.07
2023-01-05T10:08:15.012Z,36.06
2023-01-05T10:10:21.485Z,36.15
2023-01-05T10:12:27.935Z,36.18
2023-01-05T10:14:32.326Z,36.19
2023-01-05T10:16:37.086Z,36.21
2023-01-05T10:18:41.479Z,36.15
2023-01-05T10:20:45.901Z,36.18
2023-01-05T10:22:50.235Z,36.18
2023-01-05T10:24:54.607Z,36.16
2023-01-05T10:27:27.777Z,36.15
2023-01-05T10:29:32.162Z,36.14
2023-01-05T10:31:36.777Z,36.14
2023-01-05T10:33:57.990Z,36.05
2023-01-05T10:36:14.583Z,36.1
2023-01-05T10:38:20.904Z,36.05
2023-01-05T10:40:25.217Z,36.07
2023-01-05T10:42:29.576Z,36.08
2023-01-05T10:44:34.042Z,36.17
2023-01-05T10:46:53.251Z,36.16
2023-01-05T10:48:57.781Z,36.25
2023-01-05T10:51:02.135Z,36.24
2023-01-05T10:53:06.449Z,36.26
2023-01-05T10:55:10.822Z,36.31
2023-01-05T10:57:15.135Z,36.32
2023-01-05T10:59:19.873Z,36.31
2023-01-05T11:01:24.697Z,36.35
2023-01-05T11:04:34.793Z,36.34
2023-01-05T11:06:39.694Z,36.39
2023-01-05T11:08:44.032Z,36.27
2023-01-05T11:10:48.550Z,36.32
2023-01-05T11:12:52.972Z,36.26
2023-01-05T11:15:01.174Z,36.28
2023-01-05T11:17:05.553Z,36.32
2023-01-05T11:19:10.057Z,36.29
2023-01-05T11:21:14.440Z,36.28
2023-01-05T11:23:18.884Z,36.34
2023-01-05T11:25:23.226Z,36.29
2023-01-05T11:27:27.659Z,36.34
2023-01-05T11:29:31.980Z,36.29
2023-01-05T11:31:36.618Z,36.3
2023-01-05T11:33:41.128Z,36.22
2023-01-05T11:35:45.480Z,36.2
2023-01-05T11:37:49.826Z,36.17
2023-01-05T11:39:54.220Z,36.19
2023-01-05T11:41:58.575Z,36.2
2023-01-05T11:44:02.936Z,36.15
2023-01-05T11:46:07.682Z,36.16
2023-01-05T11:48:12.079Z,36.13
2023-01-05T11:50:16.823Z,36.17
2023-01-05T11:52:21.128Z,36.15
2023-01-05T11:54:25.483Z,36.14
2023-01-05T11:56:29.839Z,36.15
2023-01-05T11:58:34.231Z,36.13
2023-01-05T12:00:38.891Z,36.1
2023-01-05T12:02:43.676Z,36.09
2023-01-05T12:04:48.035Z,36.08
2023-01-05T12:06:52.393Z,36.03
2023-01-05T12:08:57.004Z,35.98
2023-01-05T12:11:01.507Z,36.03
2023-01-05T12:13:05.929Z,36.08
2023-01-05T12:15:10.338Z,36.14
2023-01-05T12:17:14.783Z,36.09
2023-01-05T12:19:19.132Z,36.06
2023-01-05T12:21:23.494Z,36.06
2023-01-05T12:23:27.882Z,36.01
2023-01-05T12:25:32.336Z,35.93
2023-01-05T12:27:36.703Z,35.93
2023-01-05T12:35:09.879Z,36.73
2023-01-05T12:37:14.366Z,36.66
2023-01-05T12:39:18.681Z,36.58
2023-01-05T12:41:23.017Z,36.66
2023-01-05T12:43:27.469Z,36.8
2023-01-05T12:45:34.277Z,37.04
2023-01-05T12:47:38.644Z,37.21
2023-01-05T12:49:43.033Z,37.06
2023-01-05T12:51:47.387Z,36.93
2023-01-05T12:53:51.885Z,36.88
2023-01-05T12:55:56.235Z,37
2023-01-05T12:58:00.536Z,36.98
2023-01-05T13:00:04.905Z,36.93
2023-01-05T13:02:09.763Z,36.81
2023-01-05T13:04:14.218Z,36.71
2023-01-05T13:06:18.638Z,36.83
2023-01-05T13:08:22.976Z,36.72
2023-01-05T13:10:27.467Z,36.6
2023-01-05T13:12:31.916Z,36.52
2023-01-05T13:14:36.353Z,36.49
2023-01-05T13:16:41.048Z,36.53
2023-01-05T13:18:45.415Z,36.45
2023-01-05T13:20:49.725Z,36.34
2023-01-05T13:22:54.095Z,36.26
2023-01-05T13:24:58.372Z,36.21
2023-01-05T13:27:02.685Z,36.13
2023-01-05T13:29:06.980Z,36.08
2023-01-05T13:31:11.574Z,36.01
2023-01-05T13:33:15.960Z,35.99
2023-01-05T13:35:20.844Z,35.98
2023-01-05T13:37:25.218Z,35.96
2023-01-05T13:39:29.530Z,35.94
2023-01-05T13:41:33.979Z,35.92
2023-01-05T13:43:38.366Z,35.93
2023-01-05T13:45:42.929Z,35.93
2023-01-05T13:47:49.232Z,35.95
2023-01-05T13:49:53.592Z,35.88
2023-01-05T13:51:57.916Z,35.88
2023-01-05T13:54:02.276Z,35.86
2023-01-05T13:56:06.702Z,35.9
2023-01-05T13:58:11.217Z,35.91
2023-01-05T14:00:15.719Z,35.92
2023-01-05T14:02:20.365Z,36
2023-01-05T14:04:24.735Z,35.91
2023-01-05T14:06:29.125Z,35.91
2023-01-05T14:08:33.639Z,35.87
2023-01-05T14:10:37.949Z,35.87
2023-01-05T14:12:42.300Z,35.84
2023-01-05T14:14:46.703Z,35.85
2023-01-05T14:16:51.117Z,35.79
2023-01-05T14:18:55.603Z,35.58
2023-01-05T14:20:59.935Z,35.6
2023-01-05T14:23:04.414Z,35.82
2023-01-05T14:25:08.770Z,35.81
2023-01-05T14:27:13.130Z,35.88
2023-01-05T14:29:17.478Z,35.88
2023-01-05T14:31:21.965Z,36.35
2023-01-05T14:33:26.440Z,36.25
2023-01-05T14:35:30.829Z,36.35
2023-01-05T14:37:35.157Z,36.3
2023-01-05T14:39:39.530Z,36.28
2023-01-05T14:41:43.911Z,36.28
2023-01-05T14:43:48.316Z,36.31
2023-01-05T14:45:55.317Z,36.63
2023-01-05T14:47:59.856Z,36.54
2023-01-05T14:50:04.319Z,36.49
2023-01-05T14:52:08.839Z,36.88
2023-01-05T14:54:13.157Z,37.11
2023-01-05T14:56:17.524Z,37.43
2023-01-05T14:58:21.906Z,37.61
2023-01-05T15:00:26.298Z,37.84
2023-01-05T15:02:30.725Z,37.85
2023-01-05T15:04:35.159Z,38
2023-01-05T15:06:39.707Z,38.14
2023-01-05T15:08:44.056Z,37.99
2023-01-05T15:10:48.398Z,37.92
2023-01-05T15:12:55.110Z,37.94
2023-01-05T15:14:59.552Z,37.92
2023-01-05T15:17:03.850Z,37.94
2023-01-05T15:19:08.254Z,37.98
2023-01-05T15:21:12.697Z,37.88
2023-01-05T15:23:17.088Z,37.9
2023-01-05T15:25:21.464Z,37.96
2023-01-05T15:27:25.789Z,37.89
2023-01-05T15:29:30.298Z,37.95
2023-01-05T15:31:34.771Z,38
2023-01-05T15:33:39.099Z,37.86
2023-01-05T15:35:43.646Z,37.91
2023-01-05T15:37:48.320Z,37.98
2023-01-05T15:39:53.086Z,37.97
2023-01-05T15:41:57.478Z,37.99
2023-01-05T15:44:01.840Z,38
2023-01-05T15:46:06.498Z,38.04
2023-01-05T15:48:11.629Z,38.06
2023-01-05T15:50:16.056Z,38.04
2023-01-05T15:52:20.490Z,38.06
2023-01-05T15:54:24.800Z,38.02
2023-01-05T15:56:29.176Z,38.14
2023-01-05T15:58:33.502Z,38.09
2023-01-05T16:00:37.998Z,38.15
2023-01-05T16:02:42.359Z,38.09
2023-01-05T16:04:46.713Z,38.17
2023-01-05T16:06:51.114Z,38.15
2023-01-05T16:08:55.491Z,38.12
2023-01-05T16:10:59.996Z,38.1
2023-01-05T16:13:04.421Z,38.16
2023-01-05T16:15:08.740Z,38.17
2023-01-05T16:17:13.263Z,38.11
2023-01-05T16:19:17.643Z,38.23
2023-01-05T16:21:22.021Z,38.22
2023-01-05T16:23:26.502Z,38.24
2023-01-05T16:25:30.849Z,38.17
2023-01-05T16:27:35.213Z,38.26
2023-01-05T16:29:39.550Z,38.29
2023-01-05T16:31:43.889Z,38.29
2023-01-05T16:33:48.816Z,38.31
2023-01-05T16:35:53.260Z,38.37
2023-01-05T16:37:57.710Z,38.4
2023-01-05T16:40:02.471Z,38.3
2023-01-05T16:42:06.852Z,38.42
2023-01-05T16:44:11.258Z,38.51
2023-01-05T16:46:18.860Z,38.55
2023-01-05T16:48:23.327Z,38.51
2023-01-05T16:50:27.632Z,38.57
2023-01-05T16:52:47.803Z,38.61
2023-01-05T16:54:52.214Z,38.61
2023-01-05T16:56:59.646Z,38.71
2023-01-05T16:59:04.104Z,38.79
2023-01-05T17:01:08.641Z,38.78
2023-01-05T17:03:13.144Z,38.78
2023-01-05T17:05:17.669Z,38.9
2023-01-05T17:07:22.182Z,38.87
2023-01-05T17:09:26.557Z,38.84
2023-01-05T17:11:31.057Z,38.89
2023-01-05T17:13:35.417Z,39.09
2023-01-05T17:15:39.872Z,39.22
2023-01-05T17:17:44.257Z,38.1
2023-01-05T17:19:49.708Z,38.17
2023-01-05T17:21:54.165Z,36.77
2023-01-05T17:23:58.594Z,37.3
2023-01-05T17:26:03.122Z,37.72
2023-01-05T17:28:07.665Z,37.34
2023-01-05T17:30:12.057Z,37.65
2023-01-05T17:32:16.474Z,37.71
2023-01-05T17:34:20.903Z,37.78
2023-01-05T17:36:25.390Z,37.43
2023-01-05T17:38:29.810Z,37.56
2023-01-05T17:40:34.435Z,37.66
2023-01-05T17:42:38.857Z,37.73
2023-01-05T17:44:43.391Z,37.35
2023-01-05T17:46:47.789Z,37.67
2023-01-05T17:48:52.414Z,37.81
2023-01-05T17:50:56.806Z,37.69
2023-01-05T17:53:01.234Z,37.92
2023-01-05T17:55:05.714Z,37.83
2023-01-05T17:59:14.581Z,37.95
2023-01-05T18:01:19.148Z,38.11
2023-01-05T18:03:24.007Z,38.4
2023-01-05T18:05:28.423Z,37.28
2023-01-05T18:07:32.833Z,35.72
2023-01-05T18:09:37.237Z,36.08
2023-01-05T18:11:41.760Z,35.53
2023-01-05T18:13:46.472Z,34.14
2023-01-05T18:15:50.885Z,34.33
2023-01-05T18:17:56.391Z,33.63
2023-01-05T18:20:00.919Z,32.48
2023-01-05T18:22:05.358Z,33.77
2023-01-05T18:24:09.834Z,32.05
2023-01-05T18:26:14.299Z,31.79
2023-01-05T18:28:18.713Z,31.19
2023-01-05T18:30:23.083Z,31.33
2023-01-05T18:32:27.524Z,31.6
2023-01-05T18:34:32.025Z,30.94
2023-01-05T18:36:36.554Z,30.55
2023-01-05T18:38:41.044Z,30.55
2023-01-05T18:40:45.687Z,30.61
2023-01-05T18:42:50.121Z,30.29
2023-01-05T18:44:54.518Z,30.38
2023-01-05T18:46:58.970Z,30.43
2023-01-05T18:49:03.459Z,30.44
2023-01-05T18:51:07.949Z,30.28
2023-01-05T18:53:12.527Z,30.12
2023-01-05T18:55:17.075Z,30.15
2023-01-05T18:57:21.809Z,30
2023-01-05T18:59:26.477Z,29.97
2023-01-05T19:01:31.050Z,29.68
2023-01-05T19:03:35.506Z,29.53
2023-01-05T19:05:39.956Z,29.46
2023-01-05T19:07:44.393Z,29.45
2023-01-05T19:09:48.849Z,29.53
2023-01-05T19:11:53.270Z,30.15
2023-01-05T19:13:57.713Z,30.24
2023-01-05T19:16:02.378Z,30.02
2023-01-05T19:18:06.782Z,29.79
2023-01-05T19:20:11.183Z,29.86
2023-01-05T19:22:15.652Z,29.6
2023-01-05T19:24:20.149Z,29.36
2023-01-05T19:26:24.599Z,30.04
2023-01-05T19:28:28.983Z,30.35
2023-01-05T19:30:33.481Z,29.76
2023-01-05T19:32:37.996Z,29.42
2023-01-05T19:34:42.425Z,29.46
2023-01-05T19:36:46.856Z,29.44
2023-01-05T19:38:51.264Z,29.54
2023-01-05T19:40:55.739Z,29.25
2023-01-05T19:43:00.165Z,29.35
2023-01-05T19:45:04.593Z,29.24
2023-01-05T19:47:08.986Z,29.55
2023-01-05T19:49:13.395Z,29.52
2023-01-05T19:51:17.822Z,29.3
2023-01-05T19:53:22.244Z,28.73
2023-01-05T19:55:26.709Z,28.36
2023-01-05T19:57:31.114Z,28.24
2023-01-05T19:59:35.610Z,28.22
2023-01-05T20:01:40.281Z,28.33
2023-01-05T20:03:44.758Z,28.33
2023-01-05T20:05:49.155Z,28.06
2023-01-05T20:07:53.589Z,27.8
2023-01-05T20:09:58.000Z,28.04
2023-01-05T20:12:16.651Z,27.93
2023-01-05T20:14:21.088Z,27.66
2023-01-05T20:16:25.842Z,27.43
2023-01-05T20:18:30.216Z,27.43
2023-01-05T20:20:34.620Z,27.25
2023-01-05T20:22:39.069Z,27.34
2023-01-05T20:24:43.681Z,27.18
2023-01-05T20:26:48.120Z,27.3
2023-01-05T20:28:52.514Z,27.72
2023-01-05T20:30:57.087Z,27.48
2023-01-05T20:33:01.526Z,27.32
2023-01-05T20:35:05.982Z,27.26
2023-01-05T20:37:10.360Z,27.28
2023-01-05T20:39:14.814Z,27.18
2023-01-05T20:41:19.210Z,27.3
2023-01-05T20:43:23.605Z,27.2
2023-01-05T20:45:28.067Z,27.19
2023-01-05T20:47:48.923Z,27.71
2023-01-05T20:49:53.395Z,27.97
2023-01-05T20:51:57.801Z,27.6
2023-01-05T20:54:02.251Z,27.39
2023-01-05T20:56:06.754Z,27.19
2023-01-05T20:58:11.455Z,27.07
2023-01-05T21:00:15.896Z,27.29
2023-01-05T21:02:26.088Z,27.23
2023-01-05T21:04:30.631Z,27.17
2023-01-05T21:06:35.107Z,27.63
2023-01-05T21:08:39.645Z,27.15
2023-01-05T21:10:44.104Z,26.99
2023-01-05T21:12:48.623Z,27.02
2023-01-05T21:14:53.090Z,26.98
2023-01-05T21:16:57.594Z,27.29
2023-01-05T21:19:03.424Z,28.29
2023-01-05T21:21:07.957Z,28.52
2023-01-05T21:23:12.373Z,29.05
2023-01-05T21:25:17.015Z,29.19
2023-01-05T21:27:21.397Z,29.37
2023-01-05T21:29:25.928Z,29.79
2023-01-05T21:31:30.677Z,30.07
2023-01-05T21:33:35.109Z,29.92
2023-01-05T21:35:39.618Z,30.47
2023-01-05T21:37:44.099Z,30.78
2023-01-05T21:39:48.493Z,30.99
2023-01-05T21:41:52.996Z,31.12
2023-01-05T21:43:57.499Z,31.45
2023-01-05T21:46:02.068Z,31.74
2023-01-05T21:48:06.569Z,32.25
2023-01-05T21:50:11.127Z,32.38
2023-01-05T21:52:15.527Z,32.53
2023-01-05T21:54:19.898Z,32.23
2023-01-05T21:56:24.326Z,32.64
2023-01-05T21:58:28.753Z,32.68
2023-01-05T22:00:33.164Z,32.75
2023-01-05T22:02:37.606Z,32.71
2023-01-05T22:04:42.103Z,32.8
2023-01-05T22:06:46.672Z,32.73
2023-01-05T22:08:51.087Z,32.84
2023-01-05T22:10:55.495Z,33.12
2023-01-05T22:12:59.951Z,33.12
2023-01-05T22:15:04.463Z,33.07
2023-01-05T22:17:08.916Z,32.93
2023-01-05T22:19:13.374Z,32.92
2023-01-05T22:21:17.917Z,32.75
2023-01-05T22:23:22.305Z,33.22
2023-01-05T22:25:26.792Z,33.51
2023-01-05T22:27:31.191Z,33.31
2023-01-05T22:29:35.692Z,33.22
2023-01-05T22:31:40.342Z,33.1
2023-01-05T22:33:44.740Z,33.35
2023-01-05T22:35:49.137Z,33.4
2023-01-05T22:37:53.600Z,33.27
2023-01-05T22:39:58.086Z,33.09
2023-01-05T22:42:02.636Z,33.18
2023-01-05T22:44:07.108Z,32.7
2023-01-05T22:46:11.885Z,32.35
2023-01-05T22:48:16.314Z,32.55
2023-01-05T22:50:20.720Z,28.94
2023-01-05T22:52:25.155Z,28.01
2023-01-05T22:54:29.614Z,26.91
2023-01-05T22:56:34.014Z,26.98
2023-01-05T22:58:38.455Z,26.73
2023-01-05T23:00:43.130Z,26.3
2023-01-05T23:02:47.542Z,26.94
2023-01-05T23:04:51.964Z,26.03
2023-01-05T23:06:56.402Z,25.75
2023-01-05T23:09:00.796Z,25.56
2023-01-05T23:11:05.240Z,25.26
2023-01-05T23:13:09.682Z,25.46
2023-01-05T23:15:14.187Z,25.48
2023-01-05T23:17:18.574Z,25.26
2023-01-05T23:19:22.985Z,25.84
2023-01-05T23:21:27.388Z,25.56
2023-01-05T23:23:31.848Z,25.57
2023-01-05T23:25:36.371Z,25.59
2023-01-05T23:27:40.793Z,25.17
2023-01-05T23:29:45.195Z,25.4
2023-01-05T23:31:49.565Z,25.42
2023-01-05T23:33:54.040Z,25.25
2023-01-05T23:35:58.465Z,24.95
2023-01-05T23:38:02.859Z,24.94
2023-01-05T23:40:07.480Z,25.02
2023-01-05T23:42:11.909Z,24.96
2023-01-05T23:44:16.345Z,24.86
2023-01-05T23:46:21.217Z,25.03
2023-01-05T23:48:25.703Z,24.78
2023-01-05T23:50:30.080Z,24.81
2023-01-05T23:52:34.478Z,24.98
2023-01-05T23:54:38.883Z,25
2023-01-05T23:56:43.306Z,24.92
2023-01-05T23:58:47.717Z,24.93
